sensor_id;sensor_type;location;lat;lon;timestamp;temperature;humidity
23550;DHT22;11953;49.010;8.608;2023-04-09T00:02:03;9.50;99.90
23550;DHT22;11953;49.010;8.608;2023-04-09T00:04:52;9.50;99.90
23550;DHT22;11953;49.010;8.608;2023-04-09T00:07:39;9.60;99.90
23550;DHT22;11953;49.010;8.608;2023-04-09T00:10:28;9.80;99.90
23550;DHT22;11953;49.010;8.608;2023-04-09T00:13:15;9.70;99.90
23550;DHT22;11953;49.010;8.608;2023-04-09T00:16:16;9.80;99.90
23550;DHT22;11953;49.010;8.608;2023-04-09T00:19:03;9.60;99.90
23550;DHT22;11953;49.010;8.608;2023-04-09T00:21:51;9.50;99.90
23550;DHT22;11953;49.010;8.608;2023-04-09T00:24:38;9.40;99.90
23550;DHT22;11953;49.010;8.608;2023-04-09T00:27:25;9.50;99.90
23550;DHT22;11953;49.010;8.608;2023-04-09T00:30:12;9.60;99.90
23550;DHT22;11953;49.010;8.608;2023-04-09T00:32:59;9.60;99.90
23550;DHT22;11953;49.010;8.608;2023-04-09T00:35:46;9.60;99.90
23550;DHT22;11953;49.010;8.608;2023-04-09T00:38:34;9.50;99.90
23550;DHT22;11953;49.010;8.608;2023-04-09T00:41:21;9.50;99.90
23550;DHT22;11953;49.010;8.608;2023-04-09T00:44:07;9.50;99.90
23550;DHT22;11953;49.010;8.608;2023-04-09T00:46:54;9.40;99.90
23550;DHT22;11953;49.010;8.608;2023-04-09T00:49:41;9.30;99.90
23550;DHT22;11953;49.010;8.608;2023-04-09T00:52:28;9.30;99.90
23550;DHT22;11953;49.010;8.608;2023-04-09T00:55:20;9.20;99.90
23550;DHT22;11953;49.010;8.608;2023-04-09T00:58:07;9.20;99.90
23550;DHT22;11953;49.010;8.608;2023-04-09T01:00:54;9.20;99.90
23550;DHT22;11953;49.010;8.608;2023-04-09T01:03:41;9.20;99.90
23550;DHT22;11953;49.010;8.608;2023-04-09T01:06:37;9.20;99.90
23550;DHT22;11953;49.010;8.608;2023-04-09T01:09:29;9.20;99.90
23550;DHT22;11953;49.010;8.608;2023-04-09T01:12:27;9.20;99.90
23550;DHT22;11953;49.010;8.608;2023-04-09T01:15:19;9.20;99.90
23550;DHT22;11953;49.010;8.608;2023-04-09T01:18:10;9.30;99.90
23550;DHT22;11953;49.010;8.608;2023-04-09T01:21:02;9.50;99.90
23550;DHT22;11953;49.010;8.608;2023-04-09T01:23:57;9.60;99.90
23550;DHT22;11953;49.010;8.608;2023-04-09T01:26:57;9.50;99.90
23550;DHT22;11953;49.010;8.608;2023-04-09T01:29:54;9.30;99.90
23550;DHT22;11953;49.010;8.608;2023-04-09T01:32:42;9.30;99.90
23550;DHT22;11953;49.010;8.608;2023-04-09T01:35:30;9.30;99.90
23550;DHT22;11953;49.010;8.608;2023-04-09T01:38:19;9.20;99.90
23550;DHT22;11953;49.010;8.608;2023-04-09T01:41:07;9.20;99.90
23550;DHT22;11953;49.010;8.608;2023-04-09T01:43:54;9.00;99.90
23550;DHT22;11953;49.010;8.608;2023-04-09T01:46:45;8.90;99.90
23550;DHT22;11953;49.010;8.608;2023-04-09T01:49:32;8.90;99.90
23550;DHT22;11953;49.010;8.608;2023-04-09T01:52:19;8.80;99.90
23550;DHT22;11953;49.010;8.608;2023-04-09T01:55:07;8.80;99.90
23550;DHT22;11953;49.010;8.608;2023-04-09T01:57:53;8.80;99.90
23550;DHT22;11953;49.010;8.608;2023-04-09T02:00:45;8.80;99.90
23550;DHT22;11953;49.010;8.608;2023-04-09T02:03:38;8.90;99.90
23550;DHT22;11953;49.010;8.608;2023-04-09T02:06:32;8.80;99.90
23550;DHT22;11953;49.010;8.608;2023-04-09T02:09:20;8.80;99.90
23550;DHT22;11953;49.010;8.608;2023-04-09T02:12:13;8.80;99.90
23550;DHT22;11953;49.010;8.608;2023-04-09T02:15:02;8.90;99.90
23550;DHT22;11953;49.010;8.608;2023-04-09T02:17:49;8.80;99.90
23550;DHT22;11953;49.010;8.608;2023-04-09T02:20:38;8.70;99.90
23550;DHT22;11953;49.010;8.608;2023-04-09T02:23:25;8.60;99.90
23550;DHT22;11953;49.010;8.608;2023-04-09T02:26:13;8.70;99.90
23550;DHT22;11953;49.010;8.608;2023-04-09T02:28:59;8.80;99.90
23550;DHT22;11953;49.010;8.608;2023-04-09T02:31:46;8.70;99.90
23550;DHT22;11953;49.010;8.608;2023-04-09T02:34:34;8.80;99.90
23550;DHT22;11953;49.010;8.608;2023-04-09T02:37:22;8.70;99.90
23550;DHT22;11953;49.010;8.608;2023-04-09T02:40:10;8.70;99.90
23550;DHT22;11953;49.010;8.608;2023-04-09T02:42:57;8.70;99.90
23550;DHT22;11953;49.010;8.608;2023-04-09T02:45:44;8.60;99.90
23550;DHT22;11953;49.010;8.608;2023-04-09T02:48:31;8.60;99.90
23550;DHT22;11953;49.010;8.608;2023-04-09T02:51:19;8.60;99.90
23550;DHT22;11953;49.010;8.608;2023-04-09T02:54:07;8.60;99.90
23550;DHT22;11953;49.010;8.608;2023-04-09T02:56:53;8.60;99.90
23550;DHT22;11953;49.010;8.608;2023-04-09T02:59:40;8.60;99.90
23550;DHT22;11953;49.010;8.608;2023-04-09T03:02:27;8.60;99.90
23550;DHT22;11953;49.010;8.608;2023-04-09T03:05:15;8.50;99.90
23550;DHT22;11953;49.010;8.608;2023-04-09T03:08:02;8.40;99.90
23550;DHT22;11953;49.010;8.608;2023-04-09T03:10:50;8.50;99.90
23550;DHT22;11953;49.010;8.608;2023-04-09T03:13:36;8.50;99.90
23550;DHT22;11953;49.010;8.608;2023-04-09T03:16:23;8.60;99.90
23550;DHT22;11953;49.010;8.608;2023-04-09T03:19:11;8.50;99.90
23550;DHT22;11953;49.010;8.608;2023-04-09T03:21:58;8.50;99.90
23550;DHT22;11953;49.010;8.608;2023-04-09T03:24:47;8.50;99.90
23550;DHT22;11953;49.010;8.608;2023-04-09T03:27:35;8.60;99.90
23550;DHT22;11953;49.010;8.608;2023-04-09T03:30:22;8.50;99.90
23550;DHT22;11953;49.010;8.608;2023-04-09T03:33:09;8.50;99.90
23550;DHT22;11953;49.010;8.608;2023-04-09T03:36:06;8.40;99.90
23550;DHT22;11953;49.010;8.608;2023-04-09T03:39:16;8.40;99.90
23550;DHT22;11953;49.010;8.608;2023-04-09T03:42:03;8.20;99.90
23550;DHT22;11953;49.010;8.608;2023-04-09T03:45:01;8.00;99.90
23550;DHT22;11953;49.010;8.608;2023-04-09T03:47:54;7.90;99.90
23550;DHT22;11953;49.010;8.608;2023-04-09T03:50:43;7.80;99.90
23550;DHT22;11953;49.010;8.608;2023-04-09T03:53:33;7.80;99.90
23550;DHT22;11953;49.010;8.608;2023-04-09T03:56:23;7.90;99.90
23550;DHT22;11953;49.010;8.608;2023-04-09T03:59:11;7.90;99.90
23550;DHT22;11953;49.010;8.608;2023-04-09T04:02:04;8.00;99.90
23550;DHT22;11953;49.010;8.608;2023-04-09T04:04:54;7.90;99.90
23550;DHT22;11953;49.010;8.608;2023-04-09T04:07:45;7.60;99.90
23550;DHT22;11953;49.010;8.608;2023-04-09T04:10:37;7.40;99.90
23550;DHT22;11953;49.010;8.608;2023-04-09T04:13:24;7.40;99.90
23550;DHT22;11953;49.010;8.608;2023-04-09T04:16:14;7.40;99.90
23550;DHT22;11953;49.010;8.608;2023-04-09T04:19:02;7.50;99.90
23550;DHT22;11953;49.010;8.608;2023-04-09T04:21:56;7.40;99.90
23550;DHT22;11953;49.010;8.608;2023-04-09T04:24:43;7.40;99.90
23550;DHT22;11953;49.010;8.608;2023-04-09T04:27:34;7.20;99.90
23550;DHT22;11953;49.010;8.608;2023-04-09T04:30:22;7.20;99.90
23550;DHT22;11953;49.010;8.608;2023-04-09T04:33:23;7.20;99.90
23550;DHT22;11953;49.010;8.608;2023-04-09T04:36:14;7.20;99.90
23550;DHT22;11953;49.010;8.608;2023-04-09T04:39:05;7.30;99.90
23550;DHT22;11953;49.010;8.608;2023-04-09T04:42:06;7.20;99.90
23550;DHT22;11953;49.010;8.608;2023-04-09T04:44:53;7.00;99.90
23550;DHT22;11953;49.010;8.608;2023-04-09T04:47:58;6.90;99.90
23550;DHT22;11953;49.010;8.608;2023-04-09T04:50:45;6.80;99.90
23550;DHT22;11953;49.010;8.608;2023-04-09T04:53:33;6.80;99.90
23550;DHT22;11953;49.010;8.608;2023-04-09T04:56:26;6.60;99.90
23550;DHT22;11953;49.010;8.608;2023-04-09T04:59:20;6.70;99.90
23550;DHT22;11953;49.010;8.608;2023-04-09T05:02:19;6.80;99.90
23550;DHT22;11953;49.010;8.608;2023-04-09T05:05:26;6.80;99.90
23550;DHT22;11953;49.010;8.608;2023-04-09T05:08:14;6.70;99.90
23550;DHT22;11953;49.010;8.608;2023-04-09T05:11:06;6.70;99.90
23550;DHT22;11953;49.010;8.608;2023-04-09T05:13:55;6.70;99.90
23550;DHT22;11953;49.010;8.608;2023-04-09T05:16:42;6.70;99.90
23550;DHT22;11953;49.010;8.608;2023-04-09T05:19:29;6.70;99.90
23550;DHT22;11953;49.010;8.608;2023-04-09T05:22:19;6.80;99.90
23550;DHT22;11953;49.010;8.608;2023-04-09T05:25:07;6.70;99.90
23550;DHT22;11953;49.010;8.608;2023-04-09T05:27:58;6.90;99.90
23550;DHT22;11953;49.010;8.608;2023-04-09T05:30:46;7.00;99.90
23550;DHT22;11953;49.010;8.608;2023-04-09T05:33:35;7.10;99.90
23550;DHT22;11953;49.010;8.608;2023-04-09T05:36:32;7.20;99.90
23550;DHT22;11953;49.010;8.608;2023-04-09T05:39:20;7.20;99.90
23550;DHT22;11953;49.010;8.608;2023-04-09T05:42:08;7.20;99.90
23550;DHT22;11953;49.010;8.608;2023-04-09T05:45:03;7.40;99.90
23550;DHT22;11953;49.010;8.608;2023-04-09T05:47:50;7.60;99.90
23550;DHT22;11953;49.010;8.608;2023-04-09T05:50:39;7.50;99.90
23550;DHT22;11953;49.010;8.608;2023-04-09T05:53:41;7.90;99.90
23550;DHT22;11953;49.010;8.608;2023-04-09T05:56:29;8.40;99.90
23550;DHT22;11953;49.010;8.608;2023-04-09T05:59:17;8.50;99.90
23550;DHT22;11953;49.010;8.608;2023-04-09T06:02:05;8.40;99.90
23550;DHT22;11953;49.010;8.608;2023-04-09T06:04:52;8.30;99.90
23550;DHT22;11953;49.010;8.608;2023-04-09T06:07:40;8.40;99.90
23550;DHT22;11953;49.010;8.608;2023-04-09T06:10:27;8.40;99.90
23550;DHT22;11953;49.010;8.608;2023-04-09T06:13:14;8.90;99.90
23550;DHT22;11953;49.010;8.608;2023-04-09T06:16:03;9.40;99.90
23550;DHT22;11953;49.010;8.608;2023-04-09T06:18:51;9.80;99.90
23550;DHT22;11953;49.010;8.608;2023-04-09T06:21:38;10.10;99.90
23550;DHT22;11953;49.010;8.608;2023-04-09T06:24:26;10.60;99.90
23550;DHT22;11953;49.010;8.608;2023-04-09T06:27:13;11.20;99.90
23550;DHT22;11953;49.010;8.608;2023-04-09T06:30:00;11.40;99.90
23550;DHT22;11953;49.010;8.608;2023-04-09T06:32:47;11.70;99.90
23550;DHT22;11953;49.010;8.608;2023-04-09T06:35:41;12.10;99.90
23550;DHT22;11953;49.010;8.608;2023-04-09T06:38:27;12.40;99.90
23550;DHT22;11953;49.010;8.608;2023-04-09T06:41:14;11.80;99.90
23550;DHT22;11953;49.010;8.608;2023-04-09T06:44:00;11.30;99.90
23550;DHT22;11953;49.010;8.608;2023-04-09T06:46:47;11.10;99.90
23550;DHT22;11953;49.010;8.608;2023-04-09T06:49:34;11.20;99.90
23550;DHT22;11953;49.010;8.608;2023-04-09T06:52:22;11.60;99.90
23550;DHT22;11953;49.010;8.608;2023-04-09T06:55:09;11.50;99.90
23550;DHT22;11953;49.010;8.608;2023-04-09T06:57:55;12.10;99.90
23550;DHT22;11953;49.010;8.608;2023-04-09T07:00:42;13.10;99.90
23550;DHT22;11953;49.010;8.608;2023-04-09T07:03:29;13.70;99.90
23550;DHT22;11953;49.010;8.608;2023-04-09T07:06:16;14.20;99.90
23550;DHT22;11953;49.010;8.608;2023-04-09T07:09:04;14.80;99.90
23550;DHT22;11953;49.010;8.608;2023-04-09T07:11:51;14.70;99.90
23550;DHT22;11953;49.010;8.608;2023-04-09T07:14:38;14.60;99.90
23550;DHT22;11953;49.010;8.608;2023-04-09T07:17:24;14.20;99.90
23550;DHT22;11953;49.010;8.608;2023-04-09T07:20:11;14.30;99.90
23550;DHT22;11953;49.010;8.608;2023-04-09T07:22:58;14.30;99.90
23550;DHT22;11953;49.010;8.608;2023-04-09T07:25:46;14.40;99.90
23550;DHT22;11953;49.010;8.608;2023-04-09T07:28:33;14.40;99.90
23550;DHT22;11953;49.010;8.608;2023-04-09T07:31:19;13.90;99.90
23550;DHT22;11953;49.010;8.608;2023-04-09T07:34:06;14.20;99.90
23550;DHT22;11953;49.010;8.608;2023-04-09T07:36:53;13.80;99.90
23550;DHT22;11953;49.010;8.608;2023-04-09T07:39:40;14.40;99.90
23550;DHT22;11953;49.010;8.608;2023-04-09T07:42:28;14.50;99.90
23550;DHT22;11953;49.010;8.608;2023-04-09T07:45:15;14.70;99.90
23550;DHT22;11953;49.010;8.608;2023-04-09T07:48:02;15.10;99.90
23550;DHT22;11953;49.010;8.608;2023-04-09T07:50:49;15.90;99.90
23550;DHT22;11953;49.010;8.608;2023-04-09T07:53:35;16.10;99.90
23550;DHT22;11953;49.010;8.608;2023-04-09T07:56:22;16.20;99.90
23550;DHT22;11953;49.010;8.608;2023-04-09T07:59:10;15.60;99.90
23550;DHT22;11953;49.010;8.608;2023-04-09T08:01:57;16.20;99.90
23550;DHT22;11953;49.010;8.608;2023-04-09T08:04:44;16.60;99.90
23550;DHT22;11953;49.010;8.608;2023-04-09T08:07:31;16.70;99.90
23550;DHT22;11953;49.010;8.608;2023-04-09T08:10:17;17.40;99.90
23550;DHT22;11953;49.010;8.608;2023-04-09T08:13:04;16.90;99.90
23550;DHT22;11953;49.010;8.608;2023-04-09T08:15:52;16.40;99.90
23550;DHT22;11953;49.010;8.608;2023-04-09T08:18:39;16.50;99.90
23550;DHT22;11953;49.010;8.608;2023-04-09T08:21:26;17.40;99.90
23550;DHT22;11953;49.010;8.608;2023-04-09T08:24:13;17.70;99.60
23550;DHT22;11953;49.010;8.608;2023-04-09T08:27:00;17.10;98.60
23550;DHT22;11953;49.010;8.608;2023-04-09T08:29:48;16.40;99.90
23550;DHT22;11953;49.010;8.608;2023-04-09T08:32:36;17.60;99.30
23550;DHT22;11953;49.010;8.608;2023-04-09T08:35:22;18.20;98.70
23550;DHT22;11953;49.010;8.608;2023-04-09T08:38:09;18.30;96.10
23550;DHT22;11953;49.010;8.608;2023-04-09T08:40:56;17.80;97.80
23550;DHT22;11953;49.010;8.608;2023-04-09T08:43:44;18.60;95.90
23550;DHT22;11953;49.010;8.608;2023-04-09T08:46:37;19.50;94.90
23550;DHT22;11953;49.010;8.608;2023-04-09T08:49:25;20.10;93.50
23550;DHT22;11953;49.010;8.608;2023-04-09T08:52:11;19.50;94.30
23550;DHT22;11953;49.010;8.608;2023-04-09T08:55:00;18.30;95.00
23550;DHT22;11953;49.010;8.608;2023-04-09T08:57:47;16.80;96.70
23550;DHT22;11953;49.010;8.608;2023-04-09T09:00:33;16.30;98.10
23550;DHT22;11953;49.010;8.608;2023-04-09T09:03:20;15.60;97.80
23550;DHT22;11953;49.010;8.608;2023-04-09T09:06:20;15.30;98.10
23550;DHT22;11953;49.010;8.608;2023-04-09T09:09:08;14.20;99.50
23550;DHT22;11953;49.010;8.608;2023-04-09T09:11:55;13.70;99.60
23550;DHT22;11953;49.010;8.608;2023-04-09T09:14:42;13.70;99.80
23550;DHT22;11953;49.010;8.608;2023-04-09T09:17:29;13.60;99.90
23550;DHT22;11953;49.010;8.608;2023-04-09T09:20:18;13.70;99.90
23550;DHT22;11953;49.010;8.608;2023-04-09T09:23:07;13.40;99.90
23550;DHT22;11953;49.010;8.608;2023-04-09T09:25:54;13.40;99.90
23550;DHT22;11953;49.010;8.608;2023-04-09T09:28:41;14.00;99.90
23550;DHT22;11953;49.010;8.608;2023-04-09T09:31:28;15.10;99.90
23550;DHT22;11953;49.010;8.608;2023-04-09T09:34:15;15.50;99.10
23550;DHT22;11953;49.010;8.608;2023-04-09T09:37:03;15.40;99.30
23550;DHT22;11953;49.010;8.608;2023-04-09T09:40:25;15.90;98.80
23550;DHT22;11953;49.010;8.608;2023-04-09T09:43:12;16.40;98.70
23550;DHT22;11953;49.010;8.608;2023-04-09T09:45:59;16.90;97.00
23550;DHT22;11953;49.010;8.608;2023-04-09T09:48:46;17.40;96.50
23550;DHT22;11953;49.010;8.608;2023-04-09T09:51:36;17.70;96.00
23550;DHT22;11953;49.010;8.608;2023-04-09T09:54:24;18.30;95.40
23550;DHT22;11953;49.010;8.608;2023-04-09T09:57:15;18.30;94.70
23550;DHT22;11953;49.010;8.608;2023-04-09T10:00:05;18.90;93.30
23550;DHT22;11953;49.010;8.608;2023-04-09T10:03:07;18.10;88.10
23550;DHT22;11953;49.010;8.608;2023-04-09T10:05:57;18.20;88.50
23550;DHT22;11953;49.010;8.608;2023-04-09T10:08:44;17.20;86.40
23550;DHT22;11953;49.010;8.608;2023-04-09T10:11:36;16.30;86.80
23550;DHT22;11953;49.010;8.608;2023-04-09T10:14:24;15.20;91.20
23550;DHT22;11953;49.010;8.608;2023-04-09T10:17:13;14.60;91.60
23550;DHT22;11953;49.010;8.608;2023-04-09T10:20:06;14.40;91.90
23550;DHT22;11953;49.010;8.608;2023-04-09T10:22:53;14.40;92.00
23550;DHT22;11953;49.010;8.608;2023-04-09T10:25:40;14.50;92.00
23550;DHT22;11953;49.010;8.608;2023-04-09T10:28:27;14.60;91.20
23550;DHT22;11953;49.010;8.608;2023-04-09T10:31:15;14.20;91.00
23550;DHT22;11953;49.010;8.608;2023-04-09T10:34:02;13.90;91.70
23550;DHT22;11953;49.010;8.608;2023-04-09T10:36:50;14.10;92.60
23550;DHT22;11953;49.010;8.608;2023-04-09T10:39:39;14.20;92.10
23550;DHT22;11953;49.010;8.608;2023-04-09T10:42:31;14.00;92.00
23550;DHT22;11953;49.010;8.608;2023-04-09T10:45:20;13.90;92.20
23550;DHT22;11953;49.010;8.608;2023-04-09T10:48:12;13.80;91.50
23550;DHT22;11953;49.010;8.608;2023-04-09T10:51:01;14.00;92.00
23550;DHT22;11953;49.010;8.608;2023-04-09T10:53:50;13.90;91.90
23550;DHT22;11953;49.010;8.608;2023-04-09T10:56:38;14.10;91.90
23550;DHT22;11953;49.010;8.608;2023-04-09T10:59:24;14.20;91.90
23550;DHT22;11953;49.010;8.608;2023-04-09T11:05:38;13.90;91.70
23550;DHT22;11953;49.010;8.608;2023-04-09T11:08:28;14.10;91.50
23550;DHT22;11953;49.010;8.608;2023-04-09T11:11:16;14.30;91.20
23550;DHT22;11953;49.010;8.608;2023-04-09T11:14:03;14.40;91.30
23550;DHT22;11953;49.010;8.608;2023-04-09T11:16:50;14.30;91.50
23550;DHT22;11953;49.010;8.608;2023-04-09T11:19:37;14.40;90.90
23550;DHT22;11953;49.010;8.608;2023-04-09T11:22:27;14.60;91.20
23550;DHT22;11953;49.010;8.608;2023-04-09T11:25:19;14.30;90.50
23550;DHT22;11953;49.010;8.608;2023-04-09T11:28:06;14.20;90.40
23550;DHT22;11953;49.010;8.608;2023-04-09T11:30:53;14.00;90.40
23550;DHT22;11953;49.010;8.608;2023-04-09T11:33:40;14.10;90.00
23550;DHT22;11953;49.010;8.608;2023-04-09T11:36:27;14.10;89.40
23550;DHT22;11953;49.010;8.608;2023-04-09T11:39:16;14.40;89.50
23550;DHT22;11953;49.010;8.608;2023-04-09T11:42:02;14.30;90.30
23550;DHT22;11953;49.010;8.608;2023-04-09T11:44:49;14.60;89.50
23550;DHT22;11953;49.010;8.608;2023-04-09T11:47:37;15.50;88.10
23550;DHT22;11953;49.010;8.608;2023-04-09T11:50:24;15.40;87.00
23550;DHT22;11953;49.010;8.608;2023-04-09T11:53:18;15.00;87.80
23550;DHT22;11953;49.010;8.608;2023-04-09T11:56:06;14.40;88.60
23550;DHT22;11953;49.010;8.608;2023-04-09T11:58:53;14.20;89.10
23550;DHT22;11953;49.010;8.608;2023-04-09T12:01:40;13.90;89.30
23550;DHT22;11953;49.010;8.608;2023-04-09T12:04:28;13.90;88.30
23550;DHT22;11953;49.010;8.608;2023-04-09T12:07:16;13.90;87.00
23550;DHT22;11953;49.010;8.608;2023-04-09T12:10:04;14.00;88.00
23550;DHT22;11953;49.010;8.608;2023-04-09T12:12:52;14.40;88.20
23550;DHT22;11953;49.010;8.608;2023-04-09T12:15:40;15.10;87.20
23550;DHT22;11953;49.010;8.608;2023-04-09T12:18:28;14.80;84.00
23550;DHT22;11953;49.010;8.608;2023-04-09T12:21:14;15.00;84.40
23550;DHT22;11953;49.010;8.608;2023-04-09T12:24:04;15.40;83.20
23550;DHT22;11953;49.010;8.608;2023-04-09T12:26:50;15.90;82.50
23550;DHT22;11953;49.010;8.608;2023-04-09T12:29:38;15.80;80.90
23550;DHT22;11953;49.010;8.608;2023-04-09T12:32:25;15.70;80.20
23550;DHT22;11953;49.010;8.608;2023-04-09T12:35:13;15.70;82.70
23550;DHT22;11953;49.010;8.608;2023-04-09T12:38:00;15.90;80.90
23550;DHT22;11953;49.010;8.608;2023-04-09T12:40:46;15.80;79.50
23550;DHT22;11953;49.010;8.608;2023-04-09T12:43:33;15.60;79.50
23550;DHT22;11953;49.010;8.608;2023-04-09T12:46:21;15.70;81.10
23550;DHT22;11953;49.010;8.608;2023-04-09T12:49:08;15.40;81.10
23550;DHT22;11953;49.010;8.608;2023-04-09T12:51:55;15.30;80.30
23550;DHT22;11953;49.010;8.608;2023-04-09T12:54:42;15.00;80.30
23550;DHT22;11953;49.010;8.608;2023-04-09T12:57:29;14.70;81.10
23550;DHT22;11953;49.010;8.608;2023-04-09T13:00:16;14.90;80.80
23550;DHT22;11953;49.010;8.608;2023-04-09T13:03:04;15.30;81.60
23550;DHT22;11953;49.010;8.608;2023-04-09T13:05:51;14.70;82.10
23550;DHT22;11953;49.010;8.608;2023-04-09T13:08:37;14.80;82.40
23550;DHT22;11953;49.010;8.608;2023-04-09T13:11:24;15.00;81.40
23550;DHT22;11953;49.010;8.608;2023-04-09T13:14:11;14.70;82.10
23550;DHT22;11953;49.010;8.608;2023-04-09T13:16:58;14.70;82.40
23550;DHT22;11953;49.010;8.608;2023-04-09T13:19:46;15.00;83.20
23550;DHT22;11953;49.010;8.608;2023-04-09T13:22:33;15.00;82.80
23550;DHT22;11953;49.010;8.608;2023-04-09T13:25:20;15.00;82.30
23550;DHT22;11953;49.010;8.608;2023-04-09T13:28:07;15.10;83.20
23550;DHT22;11953;49.010;8.608;2023-04-09T13:30:56;15.10;80.10
23550;DHT22;11953;49.010;8.608;2023-04-09T13:33:43;14.90;80.00
23550;DHT22;11953;49.010;8.608;2023-04-09T13:36:31;14.80;81.50
23550;DHT22;11953;49.010;8.608;2023-04-09T13:39:19;14.60;81.60
23550;DHT22;11953;49.010;8.608;2023-04-09T13:42:05;14.70;83.20
23550;DHT22;11953;49.010;8.608;2023-04-09T13:45:01;14.80;81.50
23550;DHT22;11953;49.010;8.608;2023-04-09T13:47:47;14.90;81.30
23550;DHT22;11953;49.010;8.608;2023-04-09T13:50:34;14.80;80.40
23550;DHT22;11953;49.010;8.608;2023-04-09T13:53:22;14.90;80.10
23550;DHT22;11953;49.010;8.608;2023-04-09T13:56:09;14.80;81.10
23550;DHT22;11953;49.010;8.608;2023-04-09T13:58:56;14.80;80.90
23550;DHT22;11953;49.010;8.608;2023-04-09T14:01:43;14.90;81.50
23550;DHT22;11953;49.010;8.608;2023-04-09T14:04:29;15.00;81.40
23550;DHT22;11953;49.010;8.608;2023-04-09T14:07:16;15.10;81.70
23550;DHT22;11953;49.010;8.608;2023-04-09T14:10:06;15.10;83.40
23550;DHT22;11953;49.010;8.608;2023-04-09T14:12:53;14.80;82.40
23550;DHT22;11953;49.010;8.608;2023-04-09T14:15:40;14.80;83.20
23550;DHT22;11953;49.010;8.608;2023-04-09T14:18:29;15.00;82.80
23550;DHT22;11953;49.010;8.608;2023-04-09T14:21:16;15.10;81.70
23550;DHT22;11953;49.010;8.608;2023-04-09T14:24:03;15.00;82.30
23550;DHT22;11953;49.010;8.608;2023-04-09T14:26:51;14.90;81.80
23550;DHT22;11953;49.010;8.608;2023-04-09T14:29:38;15.10;82.20
23550;DHT22;11953;49.010;8.608;2023-04-09T14:32:24;15.10;81.70
23550;DHT22;11953;49.010;8.608;2023-04-09T14:35:12;15.10;80.80
23550;DHT22;11953;49.010;8.608;2023-04-09T14:37:58;15.30;81.30
23550;DHT22;11953;49.010;8.608;2023-04-09T14:40:46;15.30;81.60
23550;DHT22;11953;49.010;8.608;2023-04-09T14:43:34;15.30;80.70
23550;DHT22;11953;49.010;8.608;2023-04-09T14:46:21;15.40;81.00
23550;DHT22;11953;49.010;8.608;2023-04-09T14:49:07;15.40;79.20
23550;DHT22;11953;49.010;8.608;2023-04-09T14:51:54;15.20;80.70
23550;DHT22;11953;49.010;8.608;2023-04-09T14:54:41;15.20;79.70
23550;DHT22;11953;49.010;8.608;2023-04-09T14:57:27;15.20;79.50
23550;DHT22;11953;49.010;8.608;2023-04-09T15:00:15;15.10;80.50
23550;DHT22;11953;49.010;8.608;2023-04-09T15:03:02;15.20;79.80
23550;DHT22;11953;49.010;8.608;2023-04-09T15:05:49;15.30;80.80
23550;DHT22;11953;49.010;8.608;2023-04-09T15:08:36;15.30;80.60
23550;DHT22;11953;49.010;8.608;2023-04-09T15:11:23;15.40;79.30
23550;DHT22;11953;49.010;8.608;2023-04-09T15:14:10;15.50;81.90
23550;DHT22;11953;49.010;8.608;2023-04-09T15:16:58;15.50;81.40
23550;DHT22;11953;49.010;8.608;2023-04-09T15:19:44;15.50;81.90
23550;DHT22;11953;49.010;8.608;2023-04-09T15:22:31;15.40;80.10
23550;DHT22;11953;49.010;8.608;2023-04-09T15:25:17;15.10;80.30
23550;DHT22;11953;49.010;8.608;2023-04-09T15:28:05;15.10;80.80
23550;DHT22;11953;49.010;8.608;2023-04-09T15:30:53;15.10;81.80
23550;DHT22;11953;49.010;8.608;2023-04-09T15:33:42;15.10;80.50
23550;DHT22;11953;49.010;8.608;2023-04-09T15:36:29;15.00;79.50
23550;DHT22;11953;49.010;8.608;2023-04-09T15:39:16;15.10;80.50
23550;DHT22;11953;49.010;8.608;2023-04-09T15:42:03;15.10;80.70
23550;DHT22;11953;49.010;8.608;2023-04-09T15:44:53;15.00;80.10
23550;DHT22;11953;49.010;8.608;2023-04-09T15:47:40;15.00;81.20
23550;DHT22;11953;49.010;8.608;2023-04-09T15:50:28;14.70;80.50
23550;DHT22;11953;49.010;8.608;2023-04-09T15:53:15;14.80;80.50
23550;DHT22;11953;49.010;8.608;2023-04-09T15:56:04;14.80;81.10
23550;DHT22;11953;49.010;8.608;2023-04-09T15:58:51;14.80;81.00
23550;DHT22;11953;49.010;8.608;2023-04-09T16:01:38;14.90;81.30
23550;DHT22;11953;49.010;8.608;2023-04-09T16:04:25;14.90;81.20
23550;DHT22;11953;49.010;8.608;2023-04-09T16:07:14;15.00;81.70
23550;DHT22;11953;49.010;8.608;2023-04-09T16:10:01;15.10;80.80
23550;DHT22;11953;49.010;8.608;2023-04-09T16:12:49;15.10;80.60
23550;DHT22;11953;49.010;8.608;2023-04-09T16:15:35;15.10;80.40
23550;DHT22;11953;49.010;8.608;2023-04-09T16:18:22;15.00;80.30
23550;DHT22;11953;49.010;8.608;2023-04-09T16:21:09;14.90;80.40
23550;DHT22;11953;49.010;8.608;2023-04-09T16:23:59;14.80;80.40
23550;DHT22;11953;49.010;8.608;2023-04-09T16:26:46;14.80;80.70
23550;DHT22;11953;49.010;8.608;2023-04-09T16:29:33;14.90;80.60
23550;DHT22;11953;49.010;8.608;2023-04-09T16:32:20;14.80;80.20
23550;DHT22;11953;49.010;8.608;2023-04-09T16:35:07;14.70;81.10
23550;DHT22;11953;49.010;8.608;2023-04-09T16:37:53;14.60;81.20
23550;DHT22;11953;49.010;8.608;2023-04-09T16:40:42;14.60;81.00
23550;DHT22;11953;49.010;8.608;2023-04-09T16:43:29;14.60;80.20
23550;DHT22;11953;49.010;8.608;2023-04-09T16:46:15;14.60;80.60
23550;DHT22;11953;49.010;8.608;2023-04-09T16:49:03;14.50;80.60
23550;DHT22;11953;49.010;8.608;2023-04-09T16:51:49;14.50;79.30
23550;DHT22;11953;49.010;8.608;2023-04-09T16:54:37;14.50;79.30
23550;DHT22;11953;49.010;8.608;2023-04-09T16:57:25;14.30;79.90
23550;DHT22;11953;49.010;8.608;2023-04-09T17:00:14;14.40;81.20
23550;DHT22;11953;49.010;8.608;2023-04-09T17:03:02;14.30;81.00
23550;DHT22;11953;49.010;8.608;2023-04-09T17:05:49;14.30;79.80
23550;DHT22;11953;49.010;8.608;2023-04-09T17:08:35;14.20;79.60
23550;DHT22;11953;49.010;8.608;2023-04-09T17:11:22;14.20;80.50
23550;DHT22;11953;49.010;8.608;2023-04-09T17:14:10;14.10;80.70
23550;DHT22;11953;49.010;8.608;2023-04-09T17:16:56;14.10;81.20
23550;DHT22;11953;49.010;8.608;2023-04-09T17:19:44;14.10;81.70
23550;DHT22;11953;49.010;8.608;2023-04-09T17:22:30;14.10;82.40
23550;DHT22;11953;49.010;8.608;2023-04-09T17:25:19;14.00;82.40
23550;DHT22;11953;49.010;8.608;2023-04-09T17:28:06;14.00;82.30
23550;DHT22;11953;49.010;8.608;2023-04-09T17:30:53;14.00;82.90
23550;DHT22;11953;49.010;8.608;2023-04-09T17:33:42;14.00;83.10
23550;DHT22;11953;49.010;8.608;2023-04-09T17:36:31;13.90;83.90
23550;DHT22;11953;49.010;8.608;2023-04-09T17:39:18;13.90;84.40
23550;DHT22;11953;49.010;8.608;2023-04-09T17:42:05;13.90;84.10
23550;DHT22;11953;49.010;8.608;2023-04-09T17:44:52;13.80;84.60
23550;DHT22;11953;49.010;8.608;2023-04-09T17:47:40;13.70;84.50
23550;DHT22;11953;49.010;8.608;2023-04-09T17:50:27;13.70;85.40
23550;DHT22;11953;49.010;8.608;2023-04-09T17:53:13;13.60;85.80